<?xml version="1.0" encoding="UTF-8" standalone="no" ?>
<gpx xmlns="http://www.topografix.com/GPX/1/1" xmlns:xsi="http://www.w3.org/2001/XMLSchema-instance" xsi:schemaLocation="http://www.topografix.com/GPX/1/1 http://www.topografix.com/GPX/1/1/gpx.xsd" version="1.1" creator="VisuGPX - https://www.visugpx.com">
  <metadata>
    <name>Ventabren - Chante-grillet - acqueduc</name>
  </metadata>
  <wpt lat="43.51876" lon="5.3139">
    <ele>174.2</ele>
    <name><![CDATA[Roqudfzvour]]></name>
    <desc><![CDATA[]]></desc>
  </wpt>
  <trk>
    <name><![CDATA[Chante-grillet-2019-04-09-141159]]></name>
    <trkseg>
      <trkpt lat="43.52918" lon="5.33131">
        <ele>164</ele>
        <time>2019-04-09T12:08:42Z</time>
      </trkpt>
      <trkpt lat="43.52926" lon="5.33136">
        <ele>166</ele>
        <time>2019-04-09T12:10:58Z</time>
      </trkpt>
      <trkpt lat="43.52934" lon="5.33129">
        <ele>170</ele>
        <time>2019-04-09T12:12:46Z</time>
      </trkpt>
      <trkpt lat="43.52941" lon="5.3312">
        <ele>169</ele>
        <time>2019-04-09T12:12:57Z</time>
      </trkpt>
      <trkpt lat="43.52946" lon="5.33109">
        <ele>170</ele>
        <time>2019-04-09T12:13:08Z</time>
      </trkpt>
      <trkpt lat="43.52941" lon="5.33098">
        <ele>172</ele>
        <time>2019-04-09T12:13:22Z</time>
      </trkpt>
      <trkpt lat="43.52934" lon="5.33091">
        <ele>172</ele>
        <time>2019-04-09T12:13:33Z</time>
      </trkpt>
      <trkpt lat="43.52926" lon="5.33082">
        <ele>173</ele>
        <time>2019-04-09T12:13:44Z</time>
      </trkpt>
      <trkpt lat="43.52919" lon="5.33075">
        <ele>173</ele>
        <time>2019-04-09T12:13:56Z</time>
      </trkpt>
      <trkpt lat="43.52911" lon="5.33067">
        <ele>173</ele>
        <time>2019-04-09T12:14:06Z</time>
      </trkpt>
      <trkpt lat="43.52903" lon="5.33059">
        <ele>174</ele>
        <time>2019-04-09T12:14:17Z</time>
      </trkpt>
      <trkpt lat="43.52895" lon="5.33051">
        <ele>174</ele>
        <time>2019-04-09T12:14:27Z</time>
      </trkpt>
      <trkpt lat="43.52888" lon="5.33043">
        <ele>175</ele>
        <time>2019-04-09T12:14:37Z</time>
      </trkpt>
      <trkpt lat="43.52882" lon="5.33034">
        <ele>175</ele>
        <time>2019-04-09T12:14:47Z</time>
      </trkpt>
      <trkpt lat="43.52876" lon="5.33023">
        <ele>175</ele>
        <time>2019-04-09T12:14:59Z</time>
      </trkpt>
      <trkpt lat="43.52872" lon="5.33011">
        <ele>173</ele>
        <time>2019-04-09T12:15:10Z</time>
      </trkpt>
      <trkpt lat="43.5287" lon="5.32997">
        <ele>172</ele>
        <time>2019-04-09T12:15:21Z</time>
      </trkpt>
      <trkpt lat="43.52869" lon="5.32985">
        <ele>173</ele>
        <time>2019-04-09T12:15:31Z</time>
      </trkpt>
      <trkpt lat="43.52871" lon="5.32972">
        <ele>171</ele>
        <time>2019-04-09T12:15:40Z</time>
      </trkpt>
      <trkpt lat="43.52872" lon="5.32958">
        <ele>171</ele>
        <time>2019-04-09T12:15:49Z</time>
      </trkpt>
      <trkpt lat="43.52872" lon="5.32946">
        <ele>169</ele>
        <time>2019-04-09T12:15:59Z</time>
      </trkpt>
      <trkpt lat="43.52874" lon="5.32932">
        <ele>169</ele>
        <time>2019-04-09T12:16:10Z</time>
      </trkpt>
      <trkpt lat="43.52874" lon="5.32919">
        <ele>169</ele>
        <time>2019-04-09T12:16:20Z</time>
      </trkpt>
      <trkpt lat="43.52874" lon="5.32906">
        <ele>169</ele>
        <time>2019-04-09T12:16:30Z</time>
      </trkpt>
      <trkpt lat="43.52873" lon="5.32893">
        <ele>169</ele>
        <time>2019-04-09T12:16:40Z</time>
      </trkpt>
      <trkpt lat="43.52871" lon="5.32881">
        <ele>168</ele>
        <time>2019-04-09T12:16:52Z</time>
      </trkpt>
      <trkpt lat="43.5287" lon="5.32868">
        <ele>168</ele>
        <time>2019-04-09T12:17:02Z</time>
      </trkpt>
      <trkpt lat="43.52873" lon="5.32856">
        <ele>166</ele>
        <time>2019-04-09T12:17:14Z</time>
      </trkpt>
      <trkpt lat="43.52876" lon="5.32844">
        <ele>163</ele>
        <time>2019-04-09T12:17:26Z</time>
      </trkpt>
      <trkpt lat="43.52871" lon="5.32833">
        <ele>163</ele>
        <time>2019-04-09T12:17:41Z</time>
      </trkpt>
      <trkpt lat="43.52862" lon="5.32831">
        <ele>164</ele>
        <time>2019-04-09T12:17:53Z</time>
      </trkpt>
      <trkpt lat="43.52852" lon="5.32828">
        <ele>164</ele>
        <time>2019-04-09T12:18:05Z</time>
      </trkpt>
      <trkpt lat="43.52852" lon="5.32814">
        <ele>163</ele>
        <time>2019-04-09T12:18:26Z</time>
      </trkpt>
      <trkpt lat="43.5285" lon="5.32802">
        <ele>164</ele>
        <time>2019-04-09T12:18:58Z</time>
      </trkpt>
      <trkpt lat="43.52851" lon="5.32789">
        <ele>163</ele>
        <time>2019-04-09T12:19:08Z</time>
      </trkpt>
      <trkpt lat="43.52854" lon="5.32777">
        <ele>164</ele>
        <time>2019-04-09T12:19:19Z</time>
      </trkpt>
      <trkpt lat="43.52858" lon="5.32765">
        <ele>164</ele>
        <time>2019-04-09T12:19:31Z</time>
      </trkpt>
      <trkpt lat="43.52861" lon="5.32754">
        <ele>164</ele>
        <time>2019-04-09T12:19:42Z</time>
      </trkpt>
      <trkpt lat="43.52864" lon="5.32742">
        <ele>165</ele>
        <time>2019-04-09T12:19:52Z</time>
      </trkpt>
      <trkpt lat="43.52861" lon="5.3273">
        <ele>166</ele>
        <time>2019-04-09T12:20:05Z</time>
      </trkpt>
      <trkpt lat="43.52856" lon="5.32719">
        <ele>168</ele>
        <time>2019-04-09T12:20:15Z</time>
      </trkpt>
      <trkpt lat="43.52848" lon="5.32711">
        <ele>167</ele>
        <time>2019-04-09T12:20:25Z</time>
      </trkpt>
      <trkpt lat="43.5284" lon="5.32709">
        <ele>167</ele>
        <time>2019-04-09T12:20:37Z</time>
      </trkpt>
      <trkpt lat="43.5283" lon="5.32709">
        <ele>166</ele>
        <time>2019-04-09T12:20:48Z</time>
      </trkpt>
      <trkpt lat="43.52821" lon="5.32704">
        <ele>165</ele>
        <time>2019-04-09T12:20:59Z</time>
      </trkpt>
      <trkpt lat="43.52814" lon="5.32696">
        <ele>164</ele>
        <time>2019-04-09T12:21:10Z</time>
      </trkpt>
      <trkpt lat="43.52808" lon="5.32687">
        <ele>165</ele>
        <time>2019-04-09T12:21:22Z</time>
      </trkpt>
      <trkpt lat="43.52802" lon="5.32676">
        <ele>164</ele>
        <time>2019-04-09T12:21:32Z</time>
      </trkpt>
      <trkpt lat="43.52794" lon="5.32671">
        <ele>165</ele>
        <time>2019-04-09T12:21:43Z</time>
      </trkpt>
      <trkpt lat="43.52784" lon="5.32668">
        <ele>166</ele>
        <time>2019-04-09T12:21:54Z</time>
      </trkpt>
      <trkpt lat="43.52775" lon="5.32664">
        <ele>166</ele>
        <time>2019-04-09T12:22:04Z</time>
      </trkpt>
      <trkpt lat="43.52767" lon="5.32659">
        <ele>165</ele>
        <time>2019-04-09T12:22:15Z</time>
      </trkpt>
      <trkpt lat="43.52761" lon="5.32649">
        <ele>164</ele>
        <time>2019-04-09T12:22:27Z</time>
      </trkpt>
      <trkpt lat="43.52756" lon="5.32637">
        <ele>162</ele>
        <time>2019-04-09T12:22:38Z</time>
      </trkpt>
      <trkpt lat="43.52753" lon="5.32625">
        <ele>162</ele>
        <time>2019-04-09T12:22:49Z</time>
      </trkpt>
      <trkpt lat="43.52753" lon="5.32612">
        <ele>161</ele>
        <time>2019-04-09T12:23:02Z</time>
      </trkpt>
      <trkpt lat="43.52753" lon="5.32599">
        <ele>162</ele>
        <time>2019-04-09T12:23:12Z</time>
      </trkpt>
      <trkpt lat="43.52753" lon="5.32586">
        <ele>163</ele>
        <time>2019-04-09T12:23:24Z</time>
      </trkpt>
      <trkpt lat="43.52752" lon="5.32573">
        <ele>162</ele>
        <time>2019-04-09T12:23:35Z</time>
      </trkpt>
      <trkpt lat="43.52752" lon="5.3256">
        <ele>162</ele>
        <time>2019-04-09T12:23:45Z</time>
      </trkpt>
      <trkpt lat="43.52752" lon="5.32547">
        <ele>162</ele>
        <time>2019-04-09T12:23:57Z</time>
      </trkpt>
      <trkpt lat="43.52751" lon="5.32533">
        <ele>163</ele>
        <time>2019-04-09T12:24:06Z</time>
      </trkpt>
      <trkpt lat="43.52751" lon="5.3252">
        <ele>162</ele>
        <time>2019-04-09T12:24:17Z</time>
      </trkpt>
      <trkpt lat="43.5275" lon="5.32507">
        <ele>162</ele>
        <time>2019-04-09T12:24:27Z</time>
      </trkpt>
      <trkpt lat="43.5275" lon="5.32494">
        <ele>164</ele>
        <time>2019-04-09T12:24:37Z</time>
      </trkpt>
      <trkpt lat="43.52747" lon="5.3248">
        <ele>164</ele>
        <time>2019-04-09T12:24:48Z</time>
      </trkpt>
      <trkpt lat="43.52743" lon="5.32469">
        <ele>164</ele>
        <time>2019-04-09T12:24:58Z</time>
      </trkpt>
      <trkpt lat="43.52738" lon="5.32458">
        <ele>163</ele>
        <time>2019-04-09T12:25:09Z</time>
      </trkpt>
      <trkpt lat="43.52733" lon="5.32448">
        <ele>164</ele>
        <time>2019-04-09T12:25:19Z</time>
      </trkpt>
      <trkpt lat="43.52729" lon="5.32436">
        <ele>164</ele>
        <time>2019-04-09T12:25:29Z</time>
      </trkpt>
      <trkpt lat="43.52723" lon="5.32426">
        <ele>163</ele>
        <time>2019-04-09T12:25:39Z</time>
      </trkpt>
      <trkpt lat="43.52717" lon="5.32415">
        <ele>163</ele>
        <time>2019-04-09T12:25:50Z</time>
      </trkpt>
      <trkpt lat="43.52712" lon="5.32404">
        <ele>163</ele>
        <time>2019-04-09T12:25:59Z</time>
      </trkpt>
      <trkpt lat="43.52706" lon="5.32394">
        <ele>163</ele>
        <time>2019-04-09T12:26:11Z</time>
      </trkpt>
      <trkpt lat="43.52702" lon="5.32382">
        <ele>162</ele>
        <time>2019-04-09T12:26:22Z</time>
      </trkpt>
      <trkpt lat="43.52696" lon="5.32372">
        <ele>164</ele>
        <time>2019-04-09T12:26:33Z</time>
      </trkpt>
      <trkpt lat="43.5269" lon="5.32363">
        <ele>164</ele>
        <time>2019-04-09T12:26:45Z</time>
      </trkpt>
      <trkpt lat="43.52685" lon="5.32351">
        <ele>164</ele>
        <time>2019-04-09T12:26:56Z</time>
      </trkpt>
      <trkpt lat="43.52679" lon="5.3234">
        <ele>165</ele>
        <time>2019-04-09T12:27:07Z</time>
      </trkpt>
      <trkpt lat="43.52674" lon="5.3233">
        <ele>166</ele>
        <time>2019-04-09T12:27:18Z</time>
      </trkpt>
      <trkpt lat="43.52668" lon="5.3232">
        <ele>165</ele>
        <time>2019-04-09T12:27:28Z</time>
      </trkpt>
      <trkpt lat="43.52665" lon="5.32308">
        <ele>164</ele>
        <time>2019-04-09T12:27:42Z</time>
      </trkpt>
      <trkpt lat="43.52659" lon="5.32298">
        <ele>165</ele>
        <time>2019-04-09T12:27:52Z</time>
      </trkpt>
      <trkpt lat="43.52653" lon="5.32286">
        <ele>165</ele>
        <time>2019-04-09T12:28:05Z</time>
      </trkpt>
      <trkpt lat="43.52647" lon="5.32276">
        <ele>165</ele>
        <time>2019-04-09T12:28:16Z</time>
      </trkpt>
      <trkpt lat="43.52642" lon="5.32265">
        <ele>165</ele>
        <time>2019-04-09T12:28:25Z</time>
      </trkpt>
      <trkpt lat="43.52638" lon="5.32253">
        <ele>164</ele>
        <time>2019-04-09T12:28:35Z</time>
      </trkpt>
      <trkpt lat="43.52633" lon="5.32243">
        <ele>165</ele>
        <time>2019-04-09T12:28:44Z</time>
      </trkpt>
      <trkpt lat="43.52626" lon="5.32233">
        <ele>164</ele>
        <time>2019-04-09T12:29:02Z</time>
      </trkpt>
      <trkpt lat="43.52617" lon="5.32228">
        <ele>166</ele>
        <time>2019-04-09T12:29:14Z</time>
      </trkpt>
      <trkpt lat="43.52608" lon="5.32225">
        <ele>167</ele>
        <time>2019-04-09T12:29:22Z</time>
      </trkpt>
      <trkpt lat="43.52599" lon="5.32227">
        <ele>167</ele>
        <time>2019-04-09T12:29:31Z</time>
      </trkpt>
      <trkpt lat="43.5259" lon="5.32227">
        <ele>168</ele>
        <time>2019-04-09T12:29:40Z</time>
      </trkpt>
      <trkpt lat="43.5258" lon="5.32228">
        <ele>166</ele>
        <time>2019-04-09T12:29:51Z</time>
      </trkpt>
      <trkpt lat="43.52571" lon="5.32231">
        <ele>166</ele>
        <time>2019-04-09T12:30:01Z</time>
      </trkpt>
      <trkpt lat="43.52562" lon="5.32231">
        <ele>168</ele>
        <time>2019-04-09T12:30:14Z</time>
      </trkpt>
      <trkpt lat="43.52553" lon="5.32233">
        <ele>165</ele>
        <time>2019-04-09T12:30:27Z</time>
      </trkpt>
      <trkpt lat="43.52543" lon="5.32236">
        <ele>167</ele>
        <time>2019-04-09T12:30:38Z</time>
      </trkpt>
      <trkpt lat="43.52534" lon="5.32237">
        <ele>167</ele>
        <time>2019-04-09T12:30:46Z</time>
      </trkpt>
      <trkpt lat="43.52525" lon="5.32237">
        <ele>166</ele>
        <time>2019-04-09T12:30:57Z</time>
      </trkpt>
      <trkpt lat="43.52516" lon="5.32233">
        <ele>168</ele>
        <time>2019-04-09T12:31:08Z</time>
      </trkpt>
      <trkpt lat="43.52507" lon="5.32227">
        <ele>169</ele>
        <time>2019-04-09T12:31:18Z</time>
      </trkpt>
      <trkpt lat="43.52499" lon="5.32222">
        <ele>169</ele>
        <time>2019-04-09T12:31:27Z</time>
      </trkpt>
      <trkpt lat="43.5249" lon="5.32216">
        <ele>171</ele>
        <time>2019-04-09T12:31:37Z</time>
      </trkpt>
      <trkpt lat="43.52482" lon="5.32211">
        <ele>169</ele>
        <time>2019-04-09T12:31:48Z</time>
      </trkpt>
      <trkpt lat="43.52473" lon="5.32206">
        <ele>170</ele>
        <time>2019-04-09T12:31:58Z</time>
      </trkpt>
      <trkpt lat="43.52464" lon="5.32202">
        <ele>168</ele>
        <time>2019-04-09T12:32:09Z</time>
      </trkpt>
      <trkpt lat="43.52457" lon="5.32195">
        <ele>169</ele>
        <time>2019-04-09T12:32:19Z</time>
      </trkpt>
      <trkpt lat="43.52446" lon="5.32188">
        <ele>170</ele>
        <time>2019-04-09T12:32:33Z</time>
      </trkpt>
      <trkpt lat="43.52439" lon="5.32179">
        <ele>169</ele>
        <time>2019-04-09T12:32:44Z</time>
      </trkpt>
      <trkpt lat="43.52434" lon="5.32168">
        <ele>167</ele>
        <time>2019-04-09T12:32:55Z</time>
      </trkpt>
      <trkpt lat="43.52429" lon="5.32156">
        <ele>167</ele>
        <time>2019-04-09T12:33:07Z</time>
      </trkpt>
      <trkpt lat="43.52426" lon="5.32143">
        <ele>165</ele>
        <time>2019-04-09T12:33:17Z</time>
      </trkpt>
      <trkpt lat="43.52425" lon="5.32128">
        <ele>164</ele>
        <time>2019-04-09T12:33:29Z</time>
      </trkpt>
      <trkpt lat="43.52426" lon="5.32115">
        <ele>164</ele>
        <time>2019-04-09T12:33:39Z</time>
      </trkpt>
      <trkpt lat="43.52427" lon="5.32102">
        <ele>165</ele>
        <time>2019-04-09T12:33:50Z</time>
      </trkpt>
      <trkpt lat="43.52429" lon="5.3209">
        <ele>165</ele>
        <time>2019-04-09T12:34:00Z</time>
      </trkpt>
      <trkpt lat="43.5243" lon="5.32077">
        <ele>165</ele>
        <time>2019-04-09T12:34:09Z</time>
      </trkpt>
      <trkpt lat="43.52432" lon="5.32065">
        <ele>164</ele>
        <time>2019-04-09T12:34:19Z</time>
      </trkpt>
      <trkpt lat="43.52432" lon="5.32052">
        <ele>162</ele>
        <time>2019-04-09T12:34:30Z</time>
      </trkpt>
      <trkpt lat="43.52432" lon="5.32039">
        <ele>163</ele>
        <time>2019-04-09T12:34:40Z</time>
      </trkpt>
      <trkpt lat="43.52434" lon="5.32027">
        <ele>165</ele>
        <time>2019-04-09T12:34:48Z</time>
      </trkpt>
      <trkpt lat="43.52439" lon="5.32015">
        <ele>165</ele>
        <time>2019-04-09T12:34:59Z</time>
      </trkpt>
      <trkpt lat="43.52441" lon="5.32003">
        <ele>165</ele>
        <time>2019-04-09T12:35:11Z</time>
      </trkpt>
      <trkpt lat="43.52445" lon="5.3199">
        <ele>165</ele>
        <time>2019-04-09T12:35:22Z</time>
      </trkpt>
      <trkpt lat="43.52449" lon="5.31978">
        <ele>167</ele>
        <time>2019-04-09T12:35:33Z</time>
      </trkpt>
      <trkpt lat="43.52451" lon="5.31965">
        <ele>166</ele>
        <time>2019-04-09T12:35:44Z</time>
      </trkpt>
      <trkpt lat="43.52453" lon="5.31952">
        <ele>166</ele>
        <time>2019-04-09T12:35:53Z</time>
      </trkpt>
      <trkpt lat="43.52452" lon="5.31938">
        <ele>167</ele>
        <time>2019-04-09T12:36:05Z</time>
      </trkpt>
      <trkpt lat="43.52449" lon="5.31924">
        <ele>164</ele>
        <time>2019-04-09T12:36:17Z</time>
      </trkpt>
      <trkpt lat="43.52444" lon="5.31912">
        <ele>165</ele>
        <time>2019-04-09T12:36:29Z</time>
      </trkpt>
      <trkpt lat="43.52435" lon="5.31905">
        <ele>166</ele>
        <time>2019-04-09T12:36:38Z</time>
      </trkpt>
      <trkpt lat="43.52428" lon="5.31897">
        <ele>169</ele>
        <time>2019-04-09T12:36:47Z</time>
      </trkpt>
      <trkpt lat="43.52419" lon="5.31896">
        <ele>171</ele>
        <time>2019-04-09T12:36:57Z</time>
      </trkpt>
      <trkpt lat="43.5241" lon="5.31893">
        <ele>172</ele>
        <time>2019-04-09T12:37:06Z</time>
      </trkpt>
      <trkpt lat="43.52402" lon="5.31886">
        <ele>173</ele>
        <time>2019-04-09T12:37:17Z</time>
      </trkpt>
      <trkpt lat="43.52398" lon="5.31875">
        <ele>170</ele>
        <time>2019-04-09T12:37:30Z</time>
      </trkpt>
      <trkpt lat="43.52399" lon="5.31861">
        <ele>169</ele>
        <time>2019-04-09T12:37:41Z</time>
      </trkpt>
      <trkpt lat="43.52403" lon="5.3185">
        <ele>168</ele>
        <time>2019-04-09T12:37:50Z</time>
      </trkpt>
      <trkpt lat="43.52405" lon="5.31837">
        <ele>168</ele>
        <time>2019-04-09T12:38:01Z</time>
      </trkpt>
      <trkpt lat="43.52404" lon="5.31823">
        <ele>167</ele>
        <time>2019-04-09T12:38:12Z</time>
      </trkpt>
      <trkpt lat="43.52399" lon="5.31812">
        <ele>163</ele>
        <time>2019-04-09T12:38:23Z</time>
      </trkpt>
      <trkpt lat="43.52394" lon="5.318">
        <ele>165</ele>
        <time>2019-04-09T12:38:34Z</time>
      </trkpt>
      <trkpt lat="43.52387" lon="5.3179">
        <ele>166</ele>
        <time>2019-04-09T12:38:45Z</time>
      </trkpt>
      <trkpt lat="43.52382" lon="5.3178">
        <ele>166</ele>
        <time>2019-04-09T12:38:55Z</time>
      </trkpt>
      <trkpt lat="43.52376" lon="5.31769">
        <ele>166</ele>
        <time>2019-04-09T12:39:06Z</time>
      </trkpt>
      <trkpt lat="43.52371" lon="5.31758">
        <ele>167</ele>
        <time>2019-04-09T12:39:15Z</time>
      </trkpt>
      <trkpt lat="43.52365" lon="5.31749">
        <ele>165</ele>
        <time>2019-04-09T12:39:23Z</time>
      </trkpt>
      <trkpt lat="43.5236" lon="5.31738">
        <ele>165</ele>
        <time>2019-04-09T12:39:35Z</time>
      </trkpt>
      <trkpt lat="43.52354" lon="5.31728">
        <ele>166</ele>
        <time>2019-04-09T12:39:46Z</time>
      </trkpt>
      <trkpt lat="43.52357" lon="5.31715">
        <ele>165</ele>
        <time>2019-04-09T12:45:36Z</time>
      </trkpt>
      <trkpt lat="43.52354" lon="5.31703">
        <ele>165</ele>
        <time>2019-04-09T12:45:49Z</time>
      </trkpt>
      <trkpt lat="43.52356" lon="5.31691">
        <ele>165</ele>
        <time>2019-04-09T12:46:06Z</time>
      </trkpt>
      <trkpt lat="43.52351" lon="5.3168">
        <ele>165</ele>
        <time>2019-04-09T12:46:20Z</time>
      </trkpt>
      <trkpt lat="43.52343" lon="5.31673">
        <ele>166</ele>
        <time>2019-04-09T12:46:33Z</time>
      </trkpt>
      <trkpt lat="43.52337" lon="5.31664">
        <ele>170</ele>
        <time>2019-04-09T12:46:56Z</time>
      </trkpt>
      <trkpt lat="43.52333" lon="5.31652">
        <ele>169</ele>
        <time>2019-04-09T12:47:14Z</time>
      </trkpt>
      <trkpt lat="43.52328" lon="5.3164">
        <ele>171</ele>
        <time>2019-04-09T12:47:32Z</time>
      </trkpt>
      <trkpt lat="43.5232" lon="5.31633">
        <ele>173</ele>
        <time>2019-04-09T12:47:46Z</time>
      </trkpt>
      <trkpt lat="43.5231" lon="5.31628">
        <ele>175</ele>
        <time>2019-04-09T12:48:05Z</time>
      </trkpt>
      <trkpt lat="43.52301" lon="5.31626">
        <ele>179</ele>
        <time>2019-04-09T12:48:16Z</time>
      </trkpt>
      <trkpt lat="43.52293" lon="5.31618">
        <ele>179</ele>
        <time>2019-04-09T12:48:33Z</time>
      </trkpt>
      <trkpt lat="43.52287" lon="5.31608">
        <ele>179</ele>
        <time>2019-04-09T12:48:45Z</time>
      </trkpt>
      <trkpt lat="43.52287" lon="5.31595">
        <ele>178</ele>
        <time>2019-04-09T12:48:59Z</time>
      </trkpt>
      <trkpt lat="43.52294" lon="5.31585">
        <ele>177</ele>
        <time>2019-04-09T12:49:10Z</time>
      </trkpt>
      <trkpt lat="43.52303" lon="5.31583">
        <ele>176</ele>
        <time>2019-04-09T12:49:21Z</time>
      </trkpt>
      <trkpt lat="43.5231" lon="5.31573">
        <ele>177</ele>
        <time>2019-04-09T12:49:31Z</time>
      </trkpt>
      <trkpt lat="43.52314" lon="5.31561">
        <ele>178</ele>
        <time>2019-04-09T12:49:42Z</time>
      </trkpt>
      <trkpt lat="43.5232" lon="5.31551">
        <ele>180</ele>
        <time>2019-04-09T12:49:54Z</time>
      </trkpt>
      <trkpt lat="43.52326" lon="5.31541">
        <ele>181</ele>
        <time>2019-04-09T12:50:04Z</time>
      </trkpt>
      <trkpt lat="43.52329" lon="5.31529">
        <ele>183</ele>
        <time>2019-04-09T12:50:16Z</time>
      </trkpt>
      <trkpt lat="43.52328" lon="5.31516">
        <ele>183</ele>
        <time>2019-04-09T12:51:26Z</time>
      </trkpt>
      <trkpt lat="43.52324" lon="5.31504">
        <ele>184</ele>
        <time>2019-04-09T12:51:35Z</time>
      </trkpt>
      <trkpt lat="43.52324" lon="5.31491">
        <ele>183</ele>
        <time>2019-04-09T12:51:47Z</time>
      </trkpt>
      <trkpt lat="43.52323" lon="5.31478">
        <ele>185</ele>
        <time>2019-04-09T12:52:01Z</time>
      </trkpt>
      <trkpt lat="43.52324" lon="5.31465">
        <ele>185</ele>
        <time>2019-04-09T12:52:10Z</time>
      </trkpt>
      <trkpt lat="43.52324" lon="5.31452">
        <ele>183</ele>
        <time>2019-04-09T12:52:21Z</time>
      </trkpt>
      <trkpt lat="43.52324" lon="5.31438">
        <ele>184</ele>
        <time>2019-04-09T12:52:32Z</time>
      </trkpt>
      <trkpt lat="43.52324" lon="5.31425">
        <ele>184</ele>
        <time>2019-04-09T12:52:45Z</time>
      </trkpt>
      <trkpt lat="43.52328" lon="5.31413">
        <ele>184</ele>
        <time>2019-04-09T12:52:57Z</time>
      </trkpt>
      <trkpt lat="43.52333" lon="5.31403">
        <ele>185</ele>
        <time>2019-04-09T12:53:08Z</time>
      </trkpt>
      <trkpt lat="43.52338" lon="5.31391">
        <ele>185</ele>
        <time>2019-04-09T12:53:20Z</time>
      </trkpt>
      <trkpt lat="43.52338" lon="5.31379">
        <ele>184</ele>
        <time>2019-04-09T12:53:32Z</time>
      </trkpt>
      <trkpt lat="43.52334" lon="5.31368">
        <ele>185</ele>
        <time>2019-04-09T12:53:46Z</time>
      </trkpt>
      <trkpt lat="43.52326" lon="5.31364">
        <ele>189</ele>
        <time>2019-04-09T12:54:02Z</time>
      </trkpt>
      <trkpt lat="43.5232" lon="5.31354">
        <ele>187</ele>
        <time>2019-04-09T12:55:10Z</time>
      </trkpt>
      <trkpt lat="43.52311" lon="5.3135">
        <ele>188</ele>
        <time>2019-04-09T12:55:45Z</time>
      </trkpt>
      <trkpt lat="43.52301" lon="5.31345">
        <ele>189</ele>
        <time>2019-04-09T12:55:55Z</time>
      </trkpt>
      <trkpt lat="43.52292" lon="5.31346">
        <ele>191</ele>
        <time>2019-04-09T12:56:07Z</time>
      </trkpt>
      <trkpt lat="43.52283" lon="5.31346">
        <ele>191</ele>
        <time>2019-04-09T12:56:18Z</time>
      </trkpt>
      <trkpt lat="43.52274" lon="5.31343">
        <ele>192</ele>
        <time>2019-04-09T12:56:28Z</time>
      </trkpt>
      <trkpt lat="43.52264" lon="5.3134">
        <ele>192</ele>
        <time>2019-04-09T12:56:39Z</time>
      </trkpt>
      <trkpt lat="43.52255" lon="5.31343">
        <ele>194</ele>
        <time>2019-04-09T12:56:49Z</time>
      </trkpt>
      <trkpt lat="43.52246" lon="5.31344">
        <ele>195</ele>
        <time>2019-04-09T12:56:59Z</time>
      </trkpt>
      <trkpt lat="43.52236" lon="5.31345">
        <ele>193</ele>
        <time>2019-04-09T12:57:38Z</time>
      </trkpt>
      <trkpt lat="43.52227" lon="5.31348">
        <ele>192</ele>
        <time>2019-04-09T12:57:48Z</time>
      </trkpt>
      <trkpt lat="43.52217" lon="5.31349">
        <ele>194</ele>
        <time>2019-04-09T12:57:58Z</time>
      </trkpt>
      <trkpt lat="43.52208" lon="5.31352">
        <ele>194</ele>
        <time>2019-04-09T12:58:08Z</time>
      </trkpt>
      <trkpt lat="43.52199" lon="5.31355">
        <ele>194</ele>
        <time>2019-04-09T12:58:18Z</time>
      </trkpt>
      <trkpt lat="43.5219" lon="5.31359">
        <ele>194</ele>
        <time>2019-04-09T12:58:27Z</time>
      </trkpt>
      <trkpt lat="43.52181" lon="5.3136">
        <ele>195</ele>
        <time>2019-04-09T12:58:37Z</time>
      </trkpt>
      <trkpt lat="43.52172" lon="5.31358">
        <ele>194</ele>
        <time>2019-04-09T12:58:46Z</time>
      </trkpt>
      <trkpt lat="43.52163" lon="5.31357">
        <ele>194</ele>
        <time>2019-04-09T12:58:55Z</time>
      </trkpt>
      <trkpt lat="43.52153" lon="5.31361">
        <ele>194</ele>
        <time>2019-04-09T12:59:04Z</time>
      </trkpt>
      <trkpt lat="43.52144" lon="5.31366">
        <ele>193</ele>
        <time>2019-04-09T12:59:14Z</time>
      </trkpt>
      <trkpt lat="43.52136" lon="5.31371">
        <ele>193</ele>
        <time>2019-04-09T12:59:23Z</time>
      </trkpt>
      <trkpt lat="43.52127" lon="5.31376">
        <ele>194</ele>
        <time>2019-04-09T12:59:32Z</time>
      </trkpt>
      <trkpt lat="43.52117" lon="5.31377">
        <ele>195</ele>
        <time>2019-04-09T12:59:41Z</time>
      </trkpt>
      <trkpt lat="43.52108" lon="5.31374">
        <ele>194</ele>
        <time>2019-04-09T12:59:51Z</time>
      </trkpt>
      <trkpt lat="43.52099" lon="5.31371">
        <ele>195</ele>
        <time>2019-04-09T13:00:00Z</time>
      </trkpt>
      <trkpt lat="43.52089" lon="5.31369">
        <ele>195</ele>
        <time>2019-04-09T13:00:09Z</time>
      </trkpt>
      <trkpt lat="43.5208" lon="5.31368">
        <ele>194</ele>
        <time>2019-04-09T13:00:18Z</time>
      </trkpt>
      <trkpt lat="43.52071" lon="5.31364">
        <ele>192</ele>
        <time>2019-04-09T13:00:29Z</time>
      </trkpt>
      <trkpt lat="43.52062" lon="5.31364">
        <ele>191</ele>
        <time>2019-04-09T13:00:41Z</time>
      </trkpt>
      <trkpt lat="43.52053" lon="5.31367">
        <ele>193</ele>
        <time>2019-04-09T13:00:50Z</time>
      </trkpt>
      <trkpt lat="43.52044" lon="5.31366">
        <ele>192</ele>
        <time>2019-04-09T13:00:58Z</time>
      </trkpt>
      <trkpt lat="43.52034" lon="5.31369">
        <ele>191</ele>
        <time>2019-04-09T13:01:07Z</time>
      </trkpt>
      <trkpt lat="43.52026" lon="5.31374">
        <ele>191</ele>
        <time>2019-04-09T13:01:17Z</time>
      </trkpt>
      <trkpt lat="43.52017" lon="5.31378">
        <ele>191</ele>
        <time>2019-04-09T13:01:26Z</time>
      </trkpt>
      <trkpt lat="43.52009" lon="5.31387">
        <ele>192</ele>
        <time>2019-04-09T13:01:35Z</time>
      </trkpt>
      <trkpt lat="43.52003" lon="5.31397">
        <ele>192</ele>
        <time>2019-04-09T13:01:44Z</time>
      </trkpt>
      <trkpt lat="43.51994" lon="5.31399">
        <ele>190</ele>
        <time>2019-04-09T13:01:54Z</time>
      </trkpt>
      <trkpt lat="43.51986" lon="5.31393">
        <ele>190</ele>
        <time>2019-04-09T13:02:04Z</time>
      </trkpt>
      <trkpt lat="43.51979" lon="5.31384">
        <ele>190</ele>
        <time>2019-04-09T13:02:14Z</time>
      </trkpt>
      <trkpt lat="43.51972" lon="5.31376">
        <ele>189</ele>
        <time>2019-04-09T13:02:23Z</time>
      </trkpt>
      <trkpt lat="43.51964" lon="5.31368">
        <ele>189</ele>
        <time>2019-04-09T13:02:32Z</time>
      </trkpt>
      <trkpt lat="43.51956" lon="5.31361">
        <ele>190</ele>
        <time>2019-04-09T13:02:42Z</time>
      </trkpt>
      <trkpt lat="43.51947" lon="5.31355">
        <ele>188</ele>
        <time>2019-04-09T13:02:53Z</time>
      </trkpt>
      <trkpt lat="43.51938" lon="5.31354">
        <ele>187</ele>
        <time>2019-04-09T13:03:01Z</time>
      </trkpt>
      <trkpt lat="43.51929" lon="5.31352">
        <ele>188</ele>
        <time>2019-04-09T13:03:10Z</time>
      </trkpt>
      <trkpt lat="43.5192" lon="5.31348">
        <ele>189</ele>
        <time>2019-04-09T13:03:19Z</time>
      </trkpt>
      <trkpt lat="43.51911" lon="5.31344">
        <ele>190</ele>
        <time>2019-04-09T13:03:28Z</time>
      </trkpt>
      <trkpt lat="43.51901" lon="5.31343">
        <ele>191</ele>
        <time>2019-04-09T13:03:38Z</time>
      </trkpt>
      <trkpt lat="43.51892" lon="5.3134">
        <ele>189</ele>
        <time>2019-04-09T13:03:48Z</time>
      </trkpt>
      <trkpt lat="43.51882" lon="5.31339">
        <ele>186</ele>
        <time>2019-04-09T13:03:57Z</time>
      </trkpt>
      <trkpt lat="43.51873" lon="5.31341">
        <ele>188</ele>
        <time>2019-04-09T13:04:07Z</time>
      </trkpt>
      <trkpt lat="43.51864" lon="5.31339">
        <ele>189</ele>
        <time>2019-04-09T13:04:18Z</time>
      </trkpt>
      <trkpt lat="43.51857" lon="5.3133">
        <ele>187</ele>
        <time>2019-04-09T13:04:41Z</time>
      </trkpt>
      <trkpt lat="43.51848" lon="5.31328">
        <ele>182</ele>
        <time>2019-04-09T13:06:24Z</time>
      </trkpt>
      <trkpt lat="43.51848" lon="5.31343">
        <ele>184</ele>
        <time>2019-04-09T13:17:05Z</time>
      </trkpt>
      <trkpt lat="43.51852" lon="5.31357">
        <ele>182</ele>
        <time>2019-04-09T13:17:40Z</time>
      </trkpt>
      <trkpt lat="43.51855" lon="5.31369">
        <ele>181</ele>
        <time>2019-04-09T13:17:53Z</time>
      </trkpt>
      <trkpt lat="43.51863" lon="5.31377">
        <ele>181</ele>
        <time>2019-04-09T13:18:12Z</time>
      </trkpt>
      <trkpt lat="43.51871" lon="5.31385">
        <ele>181</ele>
        <time>2019-04-09T13:18:57Z</time>
      </trkpt>
      <trkpt lat="43.51878" lon="5.31394">
        <ele>180</ele>
        <time>2019-04-09T13:19:15Z</time>
      </trkpt>
      <trkpt lat="43.51886" lon="5.31399">
        <ele>181</ele>
        <time>2019-04-09T13:19:26Z</time>
      </trkpt>
      <trkpt lat="43.51891" lon="5.31411">
        <ele>183</ele>
        <time>2019-04-09T13:19:47Z</time>
      </trkpt>
      <trkpt lat="43.51897" lon="5.31422">
        <ele>184</ele>
        <time>2019-04-09T13:19:56Z</time>
      </trkpt>
      <trkpt lat="43.51902" lon="5.31432">
        <ele>185</ele>
        <time>2019-04-09T13:20:06Z</time>
      </trkpt>
      <trkpt lat="43.51909" lon="5.3144">
        <ele>184</ele>
        <time>2019-04-09T13:20:18Z</time>
      </trkpt>
      <trkpt lat="43.51918" lon="5.31445">
        <ele>183</ele>
        <time>2019-04-09T13:20:28Z</time>
      </trkpt>
      <trkpt lat="43.51927" lon="5.31445">
        <ele>182</ele>
        <time>2019-04-09T13:20:38Z</time>
      </trkpt>
      <trkpt lat="43.51937" lon="5.31443">
        <ele>183</ele>
        <time>2019-04-09T13:20:48Z</time>
      </trkpt>
      <trkpt lat="43.51946" lon="5.31438">
        <ele>182</ele>
        <time>2019-04-09T13:20:58Z</time>
      </trkpt>
      <trkpt lat="43.51953" lon="5.3143">
        <ele>182</ele>
        <time>2019-04-09T13:21:07Z</time>
      </trkpt>
      <trkpt lat="43.51961" lon="5.31422">
        <ele>183</ele>
        <time>2019-04-09T13:21:17Z</time>
      </trkpt>
      <trkpt lat="43.51968" lon="5.31413">
        <ele>184</ele>
        <time>2019-04-09T13:21:27Z</time>
      </trkpt>
      <trkpt lat="43.51976" lon="5.31408">
        <ele>184</ele>
        <time>2019-04-09T13:21:37Z</time>
      </trkpt>
      <trkpt lat="43.51985" lon="5.31404">
        <ele>184</ele>
        <time>2019-04-09T13:21:46Z</time>
      </trkpt>
      <trkpt lat="43.51994" lon="5.31401">
        <ele>184</ele>
        <time>2019-04-09T13:21:56Z</time>
      </trkpt>
      <trkpt lat="43.52004" lon="5.31399">
        <ele>184</ele>
        <time>2019-04-09T13:22:05Z</time>
      </trkpt>
      <trkpt lat="43.52011" lon="5.31389">
        <ele>184</ele>
        <time>2019-04-09T13:22:15Z</time>
      </trkpt>
      <trkpt lat="43.52017" lon="5.31379">
        <ele>183</ele>
        <time>2019-04-09T13:22:26Z</time>
      </trkpt>
      <trkpt lat="43.52025" lon="5.31375">
        <ele>183</ele>
        <time>2019-04-09T13:22:35Z</time>
      </trkpt>
      <trkpt lat="43.52034" lon="5.3137">
        <ele>182</ele>
        <time>2019-04-09T13:22:45Z</time>
      </trkpt>
      <trkpt lat="43.52042" lon="5.31366">
        <ele>184</ele>
        <time>2019-04-09T13:22:55Z</time>
      </trkpt>
      <trkpt lat="43.52051" lon="5.31366">
        <ele>185</ele>
        <time>2019-04-09T13:23:17Z</time>
      </trkpt>
      <trkpt lat="43.52061" lon="5.31368">
        <ele>185</ele>
        <time>2019-04-09T13:23:28Z</time>
      </trkpt>
      <trkpt lat="43.52069" lon="5.31363">
        <ele>183</ele>
        <time>2019-04-09T13:23:38Z</time>
      </trkpt>
      <trkpt lat="43.52078" lon="5.31366">
        <ele>183</ele>
        <time>2019-04-09T13:23:49Z</time>
      </trkpt>
      <trkpt lat="43.52088" lon="5.31367">
        <ele>186</ele>
        <time>2019-04-09T13:25:12Z</time>
      </trkpt>
      <trkpt lat="43.52097" lon="5.31368">
        <ele>186</ele>
        <time>2019-04-09T13:25:23Z</time>
      </trkpt>
      <trkpt lat="43.52106" lon="5.31373">
        <ele>186</ele>
        <time>2019-04-09T13:25:33Z</time>
      </trkpt>
      <trkpt lat="43.52115" lon="5.31376">
        <ele>187</ele>
        <time>2019-04-09T13:25:43Z</time>
      </trkpt>
      <trkpt lat="43.52124" lon="5.31378">
        <ele>187</ele>
        <time>2019-04-09T13:25:54Z</time>
      </trkpt>
      <trkpt lat="43.52133" lon="5.31377">
        <ele>189</ele>
        <time>2019-04-09T13:26:04Z</time>
      </trkpt>
      <trkpt lat="43.52141" lon="5.31371">
        <ele>188</ele>
        <time>2019-04-09T13:26:13Z</time>
      </trkpt>
      <trkpt lat="43.52149" lon="5.31365">
        <ele>189</ele>
        <time>2019-04-09T13:26:23Z</time>
      </trkpt>
      <trkpt lat="43.52158" lon="5.3136">
        <ele>189</ele>
        <time>2019-04-09T13:26:33Z</time>
      </trkpt>
      <trkpt lat="43.52167" lon="5.31361">
        <ele>189</ele>
        <time>2019-04-09T13:26:42Z</time>
      </trkpt>
      <trkpt lat="43.52177" lon="5.31363">
        <ele>189</ele>
        <time>2019-04-09T13:26:52Z</time>
      </trkpt>
      <trkpt lat="43.52186" lon="5.31366">
        <ele>189</ele>
        <time>2019-04-09T13:27:02Z</time>
      </trkpt>
      <trkpt lat="43.52195" lon="5.31363">
        <ele>190</ele>
        <time>2019-04-09T13:27:13Z</time>
      </trkpt>
      <trkpt lat="43.52204" lon="5.31357">
        <ele>192</ele>
        <time>2019-04-09T13:27:24Z</time>
      </trkpt>
      <trkpt lat="43.52214" lon="5.31355">
        <ele>191</ele>
        <time>2019-04-09T13:27:35Z</time>
      </trkpt>
      <trkpt lat="43.52223" lon="5.31353">
        <ele>192</ele>
        <time>2019-04-09T13:27:44Z</time>
      </trkpt>
      <trkpt lat="43.52232" lon="5.31352">
        <ele>192</ele>
        <time>2019-04-09T13:27:53Z</time>
      </trkpt>
      <trkpt lat="43.52241" lon="5.3135">
        <ele>191</ele>
        <time>2019-04-09T13:28:03Z</time>
      </trkpt>
      <trkpt lat="43.52249" lon="5.31344">
        <ele>189</ele>
        <time>2019-04-09T13:28:12Z</time>
      </trkpt>
      <trkpt lat="43.52259" lon="5.31343">
        <ele>188</ele>
        <time>2019-04-09T13:28:22Z</time>
      </trkpt>
      <trkpt lat="43.52269" lon="5.31343">
        <ele>188</ele>
        <time>2019-04-09T13:28:33Z</time>
      </trkpt>
      <trkpt lat="43.52277" lon="5.31346">
        <ele>187</ele>
        <time>2019-04-09T13:28:44Z</time>
      </trkpt>
      <trkpt lat="43.52286" lon="5.31348">
        <ele>187</ele>
        <time>2019-04-09T13:28:53Z</time>
      </trkpt>
      <trkpt lat="43.52296" lon="5.31348">
        <ele>186</ele>
        <time>2019-04-09T13:29:05Z</time>
      </trkpt>
      <trkpt lat="43.52306" lon="5.31349">
        <ele>187</ele>
        <time>2019-04-09T13:29:18Z</time>
      </trkpt>
      <trkpt lat="43.52314" lon="5.31352">
        <ele>187</ele>
        <time>2019-04-09T13:29:29Z</time>
      </trkpt>
      <trkpt lat="43.52323" lon="5.31357">
        <ele>186</ele>
        <time>2019-04-09T13:29:41Z</time>
      </trkpt>
      <trkpt lat="43.52327" lon="5.31369">
        <ele>186</ele>
        <time>2019-04-09T13:29:54Z</time>
      </trkpt>
      <trkpt lat="43.5233" lon="5.31381">
        <ele>187</ele>
        <time>2019-04-09T13:30:09Z</time>
      </trkpt>
      <trkpt lat="43.52331" lon="5.31394">
        <ele>187</ele>
        <time>2019-04-09T13:30:18Z</time>
      </trkpt>
      <trkpt lat="43.52328" lon="5.31406">
        <ele>186</ele>
        <time>2019-04-09T13:30:32Z</time>
      </trkpt>
      <trkpt lat="43.52325" lon="5.31418">
        <ele>184</ele>
        <time>2019-04-09T13:30:44Z</time>
      </trkpt>
      <trkpt lat="43.52324" lon="5.31431">
        <ele>184</ele>
        <time>2019-04-09T13:30:55Z</time>
      </trkpt>
      <trkpt lat="43.52323" lon="5.31443">
        <ele>185</ele>
        <time>2019-04-09T13:31:05Z</time>
      </trkpt>
      <trkpt lat="43.52323" lon="5.31456">
        <ele>184</ele>
        <time>2019-04-09T13:31:15Z</time>
      </trkpt>
      <trkpt lat="43.52322" lon="5.31468">
        <ele>184</ele>
        <time>2019-04-09T13:31:24Z</time>
      </trkpt>
      <trkpt lat="43.52322" lon="5.31481">
        <ele>183</ele>
        <time>2019-04-09T13:31:34Z</time>
      </trkpt>
      <trkpt lat="43.52322" lon="5.31495">
        <ele>184</ele>
        <time>2019-04-09T13:31:46Z</time>
      </trkpt>
      <trkpt lat="43.52323" lon="5.31508">
        <ele>185</ele>
        <time>2019-04-09T13:31:57Z</time>
      </trkpt>
      <trkpt lat="43.52325" lon="5.3152">
        <ele>186</ele>
        <time>2019-04-09T13:32:05Z</time>
      </trkpt>
      <trkpt lat="43.52327" lon="5.31532">
        <ele>185</ele>
        <time>2019-04-09T13:32:15Z</time>
      </trkpt>
      <trkpt lat="43.52323" lon="5.31544">
        <ele>183</ele>
        <time>2019-04-09T13:32:29Z</time>
      </trkpt>
      <trkpt lat="43.52317" lon="5.31555">
        <ele>182</ele>
        <time>2019-04-09T13:32:44Z</time>
      </trkpt>
      <trkpt lat="43.52311" lon="5.31565">
        <ele>181</ele>
        <time>2019-04-09T13:32:54Z</time>
      </trkpt>
      <trkpt lat="43.52306" lon="5.31576">
        <ele>180</ele>
        <time>2019-04-09T13:33:05Z</time>
      </trkpt>
      <trkpt lat="43.52299" lon="5.31584">
        <ele>180</ele>
        <time>2019-04-09T13:33:17Z</time>
      </trkpt>
      <trkpt lat="43.5229" lon="5.31588">
        <ele>178</ele>
        <time>2019-04-09T13:33:29Z</time>
      </trkpt>
      <trkpt lat="43.52289" lon="5.31601">
        <ele>177</ele>
        <time>2019-04-09T13:33:40Z</time>
      </trkpt>
      <trkpt lat="43.5229" lon="5.31615">
        <ele>178</ele>
        <time>2019-04-09T13:33:51Z</time>
      </trkpt>
      <trkpt lat="43.52296" lon="5.31624">
        <ele>178</ele>
        <time>2019-04-09T13:34:02Z</time>
      </trkpt>
      <trkpt lat="43.52305" lon="5.31627">
        <ele>176</ele>
        <time>2019-04-09T13:34:12Z</time>
      </trkpt>
      <trkpt lat="43.52314" lon="5.3163">
        <ele>176</ele>
        <time>2019-04-09T13:34:21Z</time>
      </trkpt>
      <trkpt lat="43.52322" lon="5.31637">
        <ele>177</ele>
        <time>2019-04-09T13:34:34Z</time>
      </trkpt>
      <trkpt lat="43.5233" lon="5.31645">
        <ele>179</ele>
        <time>2019-04-09T13:34:45Z</time>
      </trkpt>
      <trkpt lat="43.52334" lon="5.31657">
        <ele>177</ele>
        <time>2019-04-09T13:34:59Z</time>
      </trkpt>
      <trkpt lat="43.52339" lon="5.31668">
        <ele>177</ele>
        <time>2019-04-09T13:35:11Z</time>
      </trkpt>
      <trkpt lat="43.52346" lon="5.31677">
        <ele>175</ele>
        <time>2019-04-09T13:35:22Z</time>
      </trkpt>
      <trkpt lat="43.52352" lon="5.31686">
        <ele>173</ele>
        <time>2019-04-09T13:35:35Z</time>
      </trkpt>
      <trkpt lat="43.52355" lon="5.31698">
        <ele>168</ele>
        <time>2019-04-09T13:36:02Z</time>
      </trkpt>
      <trkpt lat="43.52348" lon="5.31707">
        <ele>165</ele>
        <time>2019-04-09T13:36:18Z</time>
      </trkpt>
      <trkpt lat="43.52341" lon="5.31715">
        <ele>166</ele>
        <time>2019-04-09T13:36:30Z</time>
      </trkpt>
      <trkpt lat="43.52335" lon="5.31729">
        <ele>165</ele>
        <time>2019-04-09T13:43:33Z</time>
      </trkpt>
      <trkpt lat="43.52342" lon="5.31737">
        <ele>168</ele>
        <time>2019-04-09T13:43:48Z</time>
      </trkpt>
      <trkpt lat="43.5235" lon="5.31744">
        <ele>165</ele>
        <time>2019-04-09T13:43:58Z</time>
      </trkpt>
      <trkpt lat="43.52356" lon="5.31754">
        <ele>168</ele>
        <time>2019-04-09T13:44:08Z</time>
      </trkpt>
      <trkpt lat="43.52361" lon="5.31765">
        <ele>167</ele>
        <time>2019-04-09T13:44:18Z</time>
      </trkpt>
      <trkpt lat="43.52367" lon="5.31775">
        <ele>169</ele>
        <time>2019-04-09T13:44:28Z</time>
      </trkpt>
      <trkpt lat="43.52373" lon="5.31785">
        <ele>170</ele>
        <time>2019-04-09T13:44:40Z</time>
      </trkpt>
      <trkpt lat="43.52378" lon="5.31796">
        <ele>170</ele>
        <time>2019-04-09T13:44:50Z</time>
      </trkpt>
      <trkpt lat="43.52386" lon="5.31806">
        <ele>170</ele>
        <time>2019-04-09T13:44:59Z</time>
      </trkpt>
      <trkpt lat="43.5239" lon="5.31816">
        <ele>169</ele>
        <time>2019-04-09T13:45:07Z</time>
      </trkpt>
      <trkpt lat="43.52393" lon="5.31828">
        <ele>171</ele>
        <time>2019-04-09T13:45:17Z</time>
      </trkpt>
      <trkpt lat="43.52393" lon="5.31842">
        <ele>168</ele>
        <time>2019-04-09T13:45:28Z</time>
      </trkpt>
      <trkpt lat="43.52391" lon="5.31855">
        <ele>168</ele>
        <time>2019-04-09T13:45:37Z</time>
      </trkpt>
      <trkpt lat="43.52389" lon="5.31867">
        <ele>169</ele>
        <time>2019-04-09T13:45:45Z</time>
      </trkpt>
      <trkpt lat="43.5239" lon="5.31879">
        <ele>168</ele>
        <time>2019-04-09T13:45:53Z</time>
      </trkpt>
      <trkpt lat="43.52393" lon="5.31893">
        <ele>169</ele>
        <time>2019-04-09T13:46:03Z</time>
      </trkpt>
      <trkpt lat="43.52399" lon="5.31904">
        <ele>169</ele>
        <time>2019-04-09T13:46:12Z</time>
      </trkpt>
      <trkpt lat="43.52408" lon="5.31912">
        <ele>170</ele>
        <time>2019-04-09T13:46:22Z</time>
      </trkpt>
      <trkpt lat="43.52417" lon="5.31912">
        <ele>166</ele>
        <time>2019-04-09T13:46:30Z</time>
      </trkpt>
      <trkpt lat="43.52426" lon="5.31916">
        <ele>167</ele>
        <time>2019-04-09T13:46:41Z</time>
      </trkpt>
      <trkpt lat="43.52435" lon="5.31923">
        <ele>168</ele>
        <time>2019-04-09T13:46:50Z</time>
      </trkpt>
      <trkpt lat="43.5244" lon="5.31935">
        <ele>172</ele>
        <time>2019-04-09T13:47:01Z</time>
      </trkpt>
      <trkpt lat="43.52441" lon="5.31948">
        <ele>170</ele>
        <time>2019-04-09T13:47:10Z</time>
      </trkpt>
      <trkpt lat="43.5244" lon="5.31962">
        <ele>169</ele>
        <time>2019-04-09T13:47:21Z</time>
      </trkpt>
      <trkpt lat="43.52437" lon="5.31975">
        <ele>169</ele>
        <time>2019-04-09T13:47:29Z</time>
      </trkpt>
      <trkpt lat="43.52436" lon="5.31989">
        <ele>167</ele>
        <time>2019-04-09T13:47:40Z</time>
      </trkpt>
      <trkpt lat="43.5243" lon="5.32001">
        <ele>167</ele>
        <time>2019-04-09T13:47:51Z</time>
      </trkpt>
      <trkpt lat="43.52428" lon="5.32013">
        <ele>167</ele>
        <time>2019-04-09T13:48:00Z</time>
      </trkpt>
      <trkpt lat="43.52426" lon="5.32026">
        <ele>164</ele>
        <time>2019-04-09T13:48:10Z</time>
      </trkpt>
      <trkpt lat="43.52424" lon="5.3204">
        <ele>164</ele>
        <time>2019-04-09T13:48:20Z</time>
      </trkpt>
      <trkpt lat="43.52423" lon="5.32052">
        <ele>165</ele>
        <time>2019-04-09T13:48:29Z</time>
      </trkpt>
      <trkpt lat="43.52422" lon="5.32064">
        <ele>165</ele>
        <time>2019-04-09T13:48:37Z</time>
      </trkpt>
      <trkpt lat="43.52422" lon="5.32078">
        <ele>166</ele>
        <time>2019-04-09T13:48:48Z</time>
      </trkpt>
      <trkpt lat="43.52421" lon="5.3209">
        <ele>166</ele>
        <time>2019-04-09T13:48:57Z</time>
      </trkpt>
      <trkpt lat="43.5242" lon="5.32103">
        <ele>166</ele>
        <time>2019-04-09T13:49:06Z</time>
      </trkpt>
      <trkpt lat="43.52419" lon="5.32116">
        <ele>166</ele>
        <time>2019-04-09T13:49:14Z</time>
      </trkpt>
      <trkpt lat="43.52417" lon="5.3213">
        <ele>165</ele>
        <time>2019-04-09T13:49:23Z</time>
      </trkpt>
      <trkpt lat="43.52419" lon="5.32143">
        <ele>166</ele>
        <time>2019-04-09T13:49:34Z</time>
      </trkpt>
      <trkpt lat="43.5242" lon="5.32155">
        <ele>165</ele>
        <time>2019-04-09T13:49:43Z</time>
      </trkpt>
      <trkpt lat="43.52424" lon="5.32167">
        <ele>166</ele>
        <time>2019-04-09T13:49:52Z</time>
      </trkpt>
      <trkpt lat="43.52427" lon="5.32179">
        <ele>167</ele>
        <time>2019-04-09T13:50:00Z</time>
      </trkpt>
      <trkpt lat="43.52433" lon="5.32188">
        <ele>167</ele>
        <time>2019-04-09T13:50:11Z</time>
      </trkpt>
      <trkpt lat="43.52439" lon="5.32199">
        <ele>167</ele>
        <time>2019-04-09T13:50:19Z</time>
      </trkpt>
      <trkpt lat="43.52447" lon="5.32208">
        <ele>167</ele>
        <time>2019-04-09T13:50:30Z</time>
      </trkpt>
      <trkpt lat="43.52456" lon="5.32211">
        <ele>166</ele>
        <time>2019-04-09T13:50:44Z</time>
      </trkpt>
      <trkpt lat="43.52464" lon="5.32217">
        <ele>165</ele>
        <time>2019-04-09T13:50:51Z</time>
      </trkpt>
      <trkpt lat="43.52473" lon="5.32221">
        <ele>163</ele>
        <time>2019-04-09T13:51:01Z</time>
      </trkpt>
      <trkpt lat="43.52481" lon="5.32228">
        <ele>164</ele>
        <time>2019-04-09T13:51:11Z</time>
      </trkpt>
      <trkpt lat="43.5249" lon="5.32235">
        <ele>166</ele>
        <time>2019-04-09T13:51:20Z</time>
      </trkpt>
      <trkpt lat="43.52499" lon="5.32238">
        <ele>165</ele>
        <time>2019-04-09T13:51:29Z</time>
      </trkpt>
      <trkpt lat="43.5251" lon="5.32242">
        <ele>166</ele>
        <time>2019-04-09T13:51:43Z</time>
      </trkpt>
      <trkpt lat="43.52517" lon="5.32248">
        <ele>163</ele>
        <time>2019-04-09T13:51:54Z</time>
      </trkpt>
      <trkpt lat="43.52526" lon="5.32253">
        <ele>165</ele>
        <time>2019-04-09T13:52:03Z</time>
      </trkpt>
      <trkpt lat="43.52536" lon="5.32252">
        <ele>164</ele>
        <time>2019-04-09T13:52:13Z</time>
      </trkpt>
      <trkpt lat="43.52545" lon="5.3225">
        <ele>164</ele>
        <time>2019-04-09T13:52:27Z</time>
      </trkpt>
      <trkpt lat="43.52554" lon="5.32247">
        <ele>163</ele>
        <time>2019-04-09T13:52:41Z</time>
      </trkpt>
      <trkpt lat="43.52564" lon="5.32246">
        <ele>163</ele>
        <time>2019-04-09T13:52:51Z</time>
      </trkpt>
      <trkpt lat="43.52573" lon="5.32244">
        <ele>164</ele>
        <time>2019-04-09T13:53:00Z</time>
      </trkpt>
      <trkpt lat="43.52582" lon="5.32242">
        <ele>162</ele>
        <time>2019-04-09T13:53:11Z</time>
      </trkpt>
      <trkpt lat="43.52591" lon="5.3224">
        <ele>161</ele>
        <time>2019-04-09T13:53:21Z</time>
      </trkpt>
      <trkpt lat="43.52601" lon="5.32238">
        <ele>162</ele>
        <time>2019-04-09T13:53:31Z</time>
      </trkpt>
      <trkpt lat="43.5261" lon="5.32239">
        <ele>162</ele>
        <time>2019-04-09T13:53:41Z</time>
      </trkpt>
      <trkpt lat="43.52619" lon="5.32243">
        <ele>163</ele>
        <time>2019-04-09T13:53:50Z</time>
      </trkpt>
      <trkpt lat="43.52625" lon="5.32252">
        <ele>163</ele>
        <time>2019-04-09T13:53:58Z</time>
      </trkpt>
      <trkpt lat="43.5263" lon="5.32263">
        <ele>164</ele>
        <time>2019-04-09T13:54:08Z</time>
      </trkpt>
      <trkpt lat="43.52635" lon="5.32274">
        <ele>164</ele>
        <time>2019-04-09T13:54:18Z</time>
      </trkpt>
      <trkpt lat="43.52642" lon="5.32284">
        <ele>165</ele>
        <time>2019-04-09T13:54:28Z</time>
      </trkpt>
      <trkpt lat="43.52647" lon="5.32294">
        <ele>166</ele>
        <time>2019-04-09T13:54:43Z</time>
      </trkpt>
      <trkpt lat="43.52653" lon="5.32305">
        <ele>165</ele>
        <time>2019-04-09T13:54:53Z</time>
      </trkpt>
      <trkpt lat="43.52659" lon="5.32315">
        <ele>164</ele>
        <time>2019-04-09T13:55:01Z</time>
      </trkpt>
      <trkpt lat="43.52663" lon="5.32327">
        <ele>165</ele>
        <time>2019-04-09T13:55:12Z</time>
      </trkpt>
      <trkpt lat="43.52669" lon="5.32337">
        <ele>163</ele>
        <time>2019-04-09T13:55:30Z</time>
      </trkpt>
      <trkpt lat="43.52675" lon="5.32348">
        <ele>163</ele>
        <time>2019-04-09T13:55:41Z</time>
      </trkpt>
      <trkpt lat="43.52681" lon="5.32358">
        <ele>162</ele>
        <time>2019-04-09T13:55:51Z</time>
      </trkpt>
      <trkpt lat="43.52687" lon="5.32369">
        <ele>163</ele>
        <time>2019-04-09T13:56:02Z</time>
      </trkpt>
      <trkpt lat="43.52692" lon="5.3238">
        <ele>163</ele>
        <time>2019-04-09T13:56:11Z</time>
      </trkpt>
      <trkpt lat="43.52696" lon="5.32392">
        <ele>163</ele>
        <time>2019-04-09T13:56:31Z</time>
      </trkpt>
      <trkpt lat="43.52701" lon="5.32403">
        <ele>164</ele>
        <time>2019-04-09T13:56:42Z</time>
      </trkpt>
      <trkpt lat="43.52707" lon="5.32414">
        <ele>163</ele>
        <time>2019-04-09T13:56:51Z</time>
      </trkpt>
      <trkpt lat="43.52712" lon="5.32425">
        <ele>165</ele>
        <time>2019-04-09T13:57:03Z</time>
      </trkpt>
      <trkpt lat="43.52718" lon="5.32435">
        <ele>166</ele>
        <time>2019-04-09T13:57:13Z</time>
      </trkpt>
      <trkpt lat="43.52724" lon="5.32446">
        <ele>165</ele>
        <time>2019-04-09T13:57:22Z</time>
      </trkpt>
      <trkpt lat="43.52729" lon="5.32457">
        <ele>164</ele>
        <time>2019-04-09T13:57:34Z</time>
      </trkpt>
      <trkpt lat="43.52735" lon="5.32468">
        <ele>165</ele>
        <time>2019-04-09T13:57:44Z</time>
      </trkpt>
      <trkpt lat="43.52738" lon="5.3248">
        <ele>165</ele>
        <time>2019-04-09T13:57:53Z</time>
      </trkpt>
      <trkpt lat="43.5274" lon="5.32493">
        <ele>164</ele>
        <time>2019-04-09T13:58:05Z</time>
      </trkpt>
      <trkpt lat="43.52741" lon="5.32505">
        <ele>164</ele>
        <time>2019-04-09T13:58:15Z</time>
      </trkpt>
      <trkpt lat="43.52741" lon="5.32518">
        <ele>163</ele>
        <time>2019-04-09T13:58:25Z</time>
      </trkpt>
      <trkpt lat="43.52743" lon="5.32531">
        <ele>164</ele>
        <time>2019-04-09T13:58:35Z</time>
      </trkpt>
      <trkpt lat="43.52743" lon="5.32544">
        <ele>165</ele>
        <time>2019-04-09T13:58:46Z</time>
      </trkpt>
      <trkpt lat="43.52744" lon="5.32558">
        <ele>166</ele>
        <time>2019-04-09T13:58:56Z</time>
      </trkpt>
      <trkpt lat="43.52744" lon="5.32571">
        <ele>165</ele>
        <time>2019-04-09T13:59:05Z</time>
      </trkpt>
      <trkpt lat="43.52744" lon="5.32584">
        <ele>166</ele>
        <time>2019-04-09T13:59:18Z</time>
      </trkpt>
      <trkpt lat="43.52744" lon="5.32597">
        <ele>166</ele>
        <time>2019-04-09T13:59:30Z</time>
      </trkpt>
      <trkpt lat="43.52747" lon="5.3261">
        <ele>165</ele>
        <time>2019-04-09T13:59:41Z</time>
      </trkpt>
      <trkpt lat="43.52747" lon="5.32623">
        <ele>164</ele>
        <time>2019-04-09T13:59:52Z</time>
      </trkpt>
      <trkpt lat="43.52749" lon="5.32637">
        <ele>164</ele>
        <time>2019-04-09T14:00:02Z</time>
      </trkpt>
      <trkpt lat="43.5275" lon="5.32649">
        <ele>165</ele>
        <time>2019-04-09T14:00:11Z</time>
      </trkpt>
      <trkpt lat="43.52755" lon="5.32661">
        <ele>164</ele>
        <time>2019-04-09T14:00:21Z</time>
      </trkpt>
      <trkpt lat="43.52761" lon="5.32671">
        <ele>165</ele>
        <time>2019-04-09T14:00:32Z</time>
      </trkpt>
      <trkpt lat="43.52769" lon="5.32679">
        <ele>165</ele>
        <time>2019-04-09T14:00:42Z</time>
      </trkpt>
      <trkpt lat="43.52779" lon="5.32683">
        <ele>166</ele>
        <time>2019-04-09T14:00:52Z</time>
      </trkpt>
      <trkpt lat="43.52787" lon="5.32689">
        <ele>166</ele>
        <time>2019-04-09T14:01:01Z</time>
      </trkpt>
      <trkpt lat="43.52796" lon="5.32693">
        <ele>166</ele>
        <time>2019-04-09T14:01:13Z</time>
      </trkpt>
      <trkpt lat="43.52803" lon="5.32702">
        <ele>165</ele>
        <time>2019-04-09T14:01:23Z</time>
      </trkpt>
      <trkpt lat="43.5281" lon="5.32713">
        <ele>166</ele>
        <time>2019-04-09T14:01:34Z</time>
      </trkpt>
      <trkpt lat="43.52817" lon="5.3272">
        <ele>165</ele>
        <time>2019-04-09T14:01:43Z</time>
      </trkpt>
      <trkpt lat="43.52826" lon="5.32726">
        <ele>165</ele>
        <time>2019-04-09T14:01:53Z</time>
      </trkpt>
      <trkpt lat="43.52835" lon="5.32729">
        <ele>165</ele>
        <time>2019-04-09T14:02:04Z</time>
      </trkpt>
      <trkpt lat="43.52844" lon="5.3273">
        <ele>166</ele>
        <time>2019-04-09T14:02:14Z</time>
      </trkpt>
      <trkpt lat="43.52853" lon="5.32735">
        <ele>166</ele>
        <time>2019-04-09T14:02:25Z</time>
      </trkpt>
      <trkpt lat="43.52859" lon="5.32744">
        <ele>167</ele>
        <time>2019-04-09T14:02:36Z</time>
      </trkpt>
      <trkpt lat="43.52856" lon="5.32757">
        <ele>166</ele>
        <time>2019-04-09T14:02:47Z</time>
      </trkpt>
      <trkpt lat="43.52851" lon="5.32768">
        <ele>165</ele>
        <time>2019-04-09T14:02:59Z</time>
      </trkpt>
      <trkpt lat="43.52847" lon="5.3278">
        <ele>163</ele>
        <time>2019-04-09T14:03:09Z</time>
      </trkpt>
      <trkpt lat="43.52844" lon="5.32792">
        <ele>163</ele>
        <time>2019-04-09T14:03:19Z</time>
      </trkpt>
      <trkpt lat="43.52843" lon="5.32805">
        <ele>165</ele>
        <time>2019-04-09T14:03:32Z</time>
      </trkpt>
      <trkpt lat="43.52844" lon="5.32818">
        <ele>166</ele>
        <time>2019-04-09T14:03:43Z</time>
      </trkpt>
      <trkpt lat="43.52846" lon="5.32831">
        <ele>166</ele>
        <time>2019-04-09T14:03:54Z</time>
      </trkpt>
      <trkpt lat="43.52852" lon="5.3284">
        <ele>167</ele>
        <time>2019-04-09T14:04:10Z</time>
      </trkpt>
      <trkpt lat="43.52862" lon="5.32837">
        <ele>166</ele>
        <time>2019-04-09T14:04:48Z</time>
      </trkpt>
      <trkpt lat="43.52872" lon="5.32837">
        <ele>166</ele>
        <time>2019-04-09T14:04:59Z</time>
      </trkpt>
      <trkpt lat="43.52878" lon="5.32847">
        <ele>167</ele>
        <time>2019-04-09T14:05:13Z</time>
      </trkpt>
      <trkpt lat="43.52875" lon="5.32859">
        <ele>164</ele>
        <time>2019-04-09T14:05:33Z</time>
      </trkpt>
      <trkpt lat="43.52871" lon="5.32871">
        <ele>164</ele>
        <time>2019-04-09T14:05:48Z</time>
      </trkpt>
      <trkpt lat="43.52872" lon="5.32884">
        <ele>167</ele>
        <time>2019-04-09T14:06:01Z</time>
      </trkpt>
      <trkpt lat="43.52871" lon="5.32898">
        <ele>171</ele>
        <time>2019-04-09T14:07:39Z</time>
      </trkpt>
      <trkpt lat="43.52873" lon="5.32911">
        <ele>173</ele>
        <time>2019-04-09T14:07:54Z</time>
      </trkpt>
      <trkpt lat="43.52872" lon="5.32923">
        <ele>173</ele>
        <time>2019-04-09T14:08:05Z</time>
      </trkpt>
      <trkpt lat="43.52873" lon="5.32937">
        <ele>174</ele>
        <time>2019-04-09T14:08:16Z</time>
      </trkpt>
      <trkpt lat="43.52873" lon="5.32949">
        <ele>173</ele>
        <time>2019-04-09T14:08:25Z</time>
      </trkpt>
      <trkpt lat="43.52872" lon="5.32962">
        <ele>174</ele>
        <time>2019-04-09T14:08:35Z</time>
      </trkpt>
      <trkpt lat="43.52872" lon="5.32975">
        <ele>173</ele>
        <time>2019-04-09T14:08:45Z</time>
      </trkpt>
      <trkpt lat="43.5287" lon="5.32989">
        <ele>174</ele>
        <time>2019-04-09T14:08:57Z</time>
      </trkpt>
      <trkpt lat="43.52871" lon="5.33002">
        <ele>174</ele>
        <time>2019-04-09T14:09:07Z</time>
      </trkpt>
      <trkpt lat="43.52873" lon="5.33015">
        <ele>175</ele>
        <time>2019-04-09T14:09:17Z</time>
      </trkpt>
      <trkpt lat="43.52878" lon="5.33027">
        <ele>175</ele>
        <time>2019-04-09T14:09:28Z</time>
      </trkpt>
      <trkpt lat="43.52883" lon="5.33037">
        <ele>177</ele>
        <time>2019-04-09T14:09:38Z</time>
      </trkpt>
      <trkpt lat="43.5289" lon="5.33046">
        <ele>177</ele>
        <time>2019-04-09T14:09:48Z</time>
      </trkpt>
      <trkpt lat="43.52897" lon="5.33054">
        <ele>178</ele>
        <time>2019-04-09T14:09:58Z</time>
      </trkpt>
      <trkpt lat="43.52905" lon="5.33062">
        <ele>178</ele>
        <time>2019-04-09T14:10:07Z</time>
      </trkpt>
      <trkpt lat="43.52912" lon="5.3307">
        <ele>179</ele>
        <time>2019-04-09T14:10:18Z</time>
      </trkpt>
      <trkpt lat="43.52921" lon="5.33077">
        <ele>179</ele>
        <time>2019-04-09T14:10:29Z</time>
      </trkpt>
      <trkpt lat="43.52928" lon="5.33084">
        <ele>179</ele>
        <time>2019-04-09T14:11:04Z</time>
      </trkpt>
      <trkpt lat="43.52936" lon="5.33092">
        <ele>178</ele>
        <time>2019-04-09T14:11:17Z</time>
      </trkpt>
      <trkpt lat="43.52941" lon="5.33103">
        <ele>177</ele>
        <time>2019-04-09T14:11:31Z</time>
      </trkpt>
      <trkpt lat="43.5294" lon="5.33117">
        <ele>176</ele>
        <time>2019-04-09T14:11:52Z</time>
      </trkpt>
    </trkseg>
  </trk>
</gpx>